Time;durP1;ratioP1;P1;durP2;ratioP2;P2;SDS_P1;SDS_P2;PMS_P1;PMS_P2;Temp;Humidity;BMP_temperature;BMP_pressure;BME280_temperature;BME280_humidity;BME280_pressure;Samples;Min_cycle;Max_cycle;Signal;HPM_P1;HPM_P2
2024/03/05 00:00:11;;;;;;;43.23;21.57;;;;;;;;;;699024;28;2325;-63
2024/03/05 00:00:35;;;;;;;47.20;22.73;;;;;;;;;;700526;28;1302;-64
2024/03/05 00:00:58;;;;;;;45.43;22.17;;;;;;;;;;699575;28;938;-63
2024/03/05 00:01:18;;;;;;;47.20;22.85;;;;;;;;;;697234;28;4654;-64
2024/03/05 00:01:39;;;;;;;46.17;22.35;;;;;;;;;;699257;28;888;-65
2024/03/05 00:01:59;;;;;;;46.27;21.90;;;;;;;;;;700928;28;1487;-63
2024/03/05 00:02:19;;;;;;;46.33;21.75;;;;;;;;;;700164;28;1932;-63
2024/03/05 00:02:40;;;;;;;46.60;22.03;;;;;;;;;;699246;28;773;-63
2024/03/05 00:03:00;;;;;;;45.03;21.85;;;;;;;;;;699576;28;891;-63
2024/03/05 00:03:21;;;;;;;46.07;21.87;;;;;;;;;;697678;28;2387;-63
2024/03/05 00:03:41;;;;;;;44.70;21.83;;;;;;;;;;699734;28;1396;-64
2024/03/05 00:04:01;;;;;;;43.07;21.60;;;;;;;;;;699752;28;828;-63
2024/03/05 00:04:22;;;;;;;45.83;22.03;;;;;;;;;;697413;28;4547;-63
2024/03/05 00:04:42;;;;;;;43.05;21.40;;;;;;;;;;700237;28;822;-64
2024/03/05 00:05:04;;;;;;;45.23;21.70;;;;;;;;;;700223;28;845;-64
2024/03/05 00:05:24;;;;;;;46.80;22.02;;;;;;;;;;700013;28;1292;-65
2024/03/05 00:05:45;;;;;;;43.60;21.80;;;;;;;;;;699740;28;853;-64
2024/03/05 00:06:06;;;;;;;45.88;22.00;;;;;;;;;;697365;28;3463;-64
2024/03/05 00:06:26;;;;;;;44.55;21.33;;;;;;;;;;699774;28;920;-64
2024/03/05 00:06:47;;;;;;;45.73;22.73;;;;;;;;;;698678;28;999;-64
2024/03/05 00:07:07;;;;;;;45.55;22.70;;;;;;;;;;699861;28;1788;-63
2024/03/05 00:07:27;;;;;;;49.20;22.70;;;;;;;;;;699199;28;4458;-64
2024/03/05 00:07:47;;;;;;;46.22;22.15;;;;;;;;;;700240;28;916;-64
2024/03/05 00:08:08;;;;;;;47.03;22.27;;;;;;;;;;699711;28;2385;-64
2024/03/05 00:08:28;;;;;;;47.60;22.00;;;;;;;;;;699647;28;987;-64
2024/03/05 00:08:48;;;;;;;45.92;22.23;;;;;;;;;;699987;28;1258;-64
2024/03/05 00:09:09;;;;;;;45.33;22.50;;;;;;;;;;700091;28;2252;-64
2024/03/05 00:09:30;;;;;;;45.07;22.77;;;;;;;;;;700414;28;928;-63
2024/03/05 00:09:50;;;;;;;46.45;21.98;;;;;;;;;;700947;28;997;-65
2024/03/05 00:10:11;;;;;;;48.60;23.23;;;;;;;;;;699851;28;2998;-64
2024/03/05 00:10:32;;;;;;;44.47;22.08;;;;;;;;;;700584;28;4319;-63
2024/03/05 00:10:53;;;;;;;42.50;21.87;;;;;;;;;;699760;28;908;-64
2024/03/05 00:11:14;;;;;;;44.83;21.70;;;;;;;;;;697632;28;2600;-63
2024/03/05 00:11:35;;;;;;;45.67;21.55;;;;;;;;;;699135;28;1053;-64
2024/03/05 00:11:56;;;;;;;46.95;22.25;;;;;;;;;;700337;28;1065;-63
2024/03/05 00:12:17;;;;;;;44.67;22.35;;;;;;;;;;695991;28;2279;-64
2024/03/05 00:12:37;;;;;;;43.72;22.65;;;;;;;;;;697409;28;912;-63
2024/03/05 00:12:58;;;;;;;48.15;22.63;;;;;;;;;;697301;28;968;-63
2024/03/05 00:13:18;;;;;;;47.00;23.07;;;;;;;;;;698374;28;4732;-64
2024/03/05 00:13:39;;;;;;;44.83;22.65;;;;;;;;;;700924;28;1231;-64
2024/03/05 00:13:59;;;;;;;45.63;21.43;;;;;;;;;;701220;28;1348;-64
2024/03/05 00:14:19;;;;;;;45.53;21.43;;;;;;;;;;700254;28;1717;-63
2024/03/05 00:14:41;;;;;;;43.65;21.45;;;;;;;;;;700363;28;889;-64
2024/03/05 00:15:01;;;;;;;46.35;22.27;;;;;;;;;;700325;28;971;-64
2024/03/05 00:15:21;;;;;;;45.83;22.50;;;;;;;;;;699935;28;1493;-63
2024/03/05 00:15:42;;;;;;;44.03;21.73;;;;;;;;;;701671;28;1855;-64
2024/03/05 00:16:04;;;;;;;47.17;22.52;;;;;;;;;;701687;28;924;-65
2024/03/05 00:16:24;;;;;;;45.30;22.48;;;;;;;;;;700314;28;4502;-64
2024/03/05 00:16:44;;;;;;;46.20;22.37;;;;;;;;;;701994;28;891;-65
2024/03/05 00:17:05;;;;;;;48.07;22.40;;;;;;;;;;699965;28;2478;-63
2024/03/05 00:17:25;;;;;;;46.53;22.80;;;;;;;;;;699063;28;1270;-64
2024/03/05 00:17:45;;;;;;;46.17;22.80;;;;;;;;;;700194;28;841;-63
2024/03/05 00:18:06;;;;;;;47.30;22.23;;;;;;;;;;695825;28;2092;-63
2024/03/05 00:18:26;;;;;;;46.53;22.93;;;;;;;;;;697961;28;1004;-64
2024/03/05 00:18:46;;;;;;;46.30;22.30;;;;;;;;;;698227;28;979;-63
2024/03/05 00:19:08;;;;;;;48.17;22.77;;;;;;;;;;694416;28;1724;-63
2024/03/05 00:19:28;;;;;;;48.80;22.60;;;;;;;;;;697295;28;4375;-63
2024/03/05 00:19:49;;;;;;;47.00;22.20;;;;;;;;;;699054;28;1918;-63
2024/03/05 00:20:17;;;;;;;45.60;22.03;;;;;;;;;;699903;28;1834;-64
2024/03/05 00:20:38;;;;;;;48.05;22.50;;;;;;;;;;698858;28;1618;-64
2024/03/05 00:20:58;;;;;;;46.70;22.20;;;;;;;;;;700105;28;1006;-62
2024/03/05 00:21:18;;;;;;;47.65;22.77;;;;;;;;;;698256;28;1405;-64
2024/03/05 00:21:39;;;;;;;49.00;23.37;;;;;;;;;;701931;28;904;-65
2024/03/05 00:21:59;;;;;;;48.03;23.30;;;;;;;;;;701848;28;971;-65
2024/03/05 00:22:20;;;;;;;47.92;23.02;;;;;;;;;;699798;28;4453;-63
2024/03/05 00:22:41;;;;;;;46.97;23.13;;;;;;;;;;701527;28;1313;-64
2024/03/05 00:23:02;;;;;;;48.17;23.30;;;;;;;;;;701172;28;1204;-63
2024/03/05 00:23:22;;;;;;;47.60;22.67;;;;;;;;;;698496;28;1472;-63
2024/03/05 00:23:42;;;;;;;49.13;22.47;;;;;;;;;;701472;28;867;-63
2024/03/05 00:24:03;;;;;;;48.53;23.20;;;;;;;;;;700706;28;1259;-63
2024/03/05 00:24:23;;;;;;;47.42;22.70;;;;;;;;;;698977;28;2733;-62
2024/03/05 00:24:43;;;;;;;45.73;22.20;;;;;;;;;;701268;28;929;-64
2024/03/05 00:25:04;;;;;;;43.73;21.40;;;;;;;;;;701179;28;860;-64
2024/03/05 00:25:25;;;;;;;43.55;20.85;;;;;;;;;;698538;28;4348;-63
2024/03/05 00:25:45;;;;;;;46.83;21.88;;;;;;;;;;700016;28;1078;-64
2024/03/05 00:26:05;;;;;;;43.63;21.83;;;;;;;;;;700478;28;2244;-62
2024/03/05 00:26:25;;;;;;;46.87;21.90;;;;;;;;;;701660;28;856;-63
2024/03/05 00:26:46;;;;;;;45.47;21.90;;;;;;;;;;702060;28;992;-63
2024/03/05 00:27:07;;;;;;;45.77;22.20;;;;;;;;;;700536;28;2389;-64
2024/03/05 00:27:27;;;;;;;47.67;21.88;;;;;;;;;;700410;28;954;-63
2024/03/05 00:27:48;;;;;;;46.88;21.60;;;;;;;;;;700777;28;1495;-63
2024/03/05 00:28:08;;;;;;;46.57;22.47;;;;;;;;;;698915;28;2527;-63
2024/03/05 00:28:29;;;;;;;48.70;22.97;;;;;;;;;;699601;28;4277;-65
2024/03/05 00:28:49;;;;;;;48.07;22.80;;;;;;;;;;701176;28;896;-64
2024/03/05 00:29:09;;;;;;;45.80;21.92;;;;;;;;;;700236;28;1908;-64
2024/03/05 00:29:29;;;;;;;44.47;22.40;;;;;;;;;;701038;28;1338;-63
2024/03/05 00:29:50;;;;;;;44.20;21.83;;;;;;;;;;699326;28;905;-64
2024/03/05 00:30:12;;;;;;;46.42;21.85;;;;;;;;;;699990;28;2146;-64
2024/03/05 00:30:32;;;;;;;46.90;21.42;;;;;;;;;;700113;28;947;-64
2024/03/05 00:30:53;;;;;;;48.20;22.20;;;;;;;;;;701082;28;1284;-63
2024/03/05 00:31:13;;;;;;;46.85;22.23;;;;;;;;;;699160;28;4501;-64
2024/03/05 00:31:34;;;;;;;47.07;22.17;;;;;;;;;;700352;28;916;-62
2024/03/05 00:31:54;;;;;;;44.95;20.83;;;;;;;;;;700131;28;1039;-64
2024/03/05 00:32:15;;;;;;;44.97;21.07;;;;;;;;;;699645;28;1473;-63
2024/03/05 00:32:37;;;;;;;44.70;21.83;;;;;;;;;;699802;28;1399;-63
2024/03/05 00:32:58;;;;;;;44.50;21.17;;;;;;;;;;701527;28;944;-63
2024/03/05 00:33:18;;;;;;;47.28;21.73;;;;;;;;;;698359;28;1905;-64
2024/03/05 00:33:38;;;;;;;47.58;22.77;;;;;;;;;;699957;28;881;-63
2024/03/05 00:33:59;;;;;;;44.73;21.87;;;;;;;;;;699590;28;983;-63
2024/03/05 00:34:19;;;;;;;46.23;22.63;;;;;;;;;;699442;28;4633;-63
2024/03/05 00:34:39;;;;;;;48.50;22.63;;;;;;;;;;702990;28;861;-64
2024/03/05 00:34:59;;;;;;;46.93;23.03;;;;;;;;;;704161;28;858;-63
2024/03/05 00:35:20;;;;;;;46.97;22.17;;;;;;;;;;701426;28;1589;-63
2024/03/05 00:35:42;;;;;;;43.80;21.33;;;;;;;;;;701975;28;935;-63
2024/03/05 00:36:03;;;;;;;44.75;22.13;;;;;;;;;;701501;28;1393;-64
2024/03/05 00:36:25;;;;;;;49.53;23.10;;;;;;;;;;700676;28;1805;-63
2024/03/05 00:36:45;;;;;;;47.53;21.67;;;;;;;;;;703545;28;858;-64
2024/03/05 00:37:05;;;;;;;47.07;22.20;;;;;;;;;;702033;28;1097;-64
2024/03/05 00:37:26;;;;;;;46.53;21.45;;;;;;;;;;701730;28;4533;-64
2024/03/05 00:37:46;;;;;;;45.10;20.87;;;;;;;;;;702856;28;978;-63
2024/03/05 00:38:06;;;;;;;42.43;21.63;;;;;;;;;;701261;28;2612;-63
2024/03/05 00:38:27;;;;;;;46.70;22.05;;;;;;;;;;702512;28;948;-64
2024/03/05 00:38:47;;;;;;;45.30;22.23;;;;;;;;;;703887;28;1247;-62
2024/03/05 00:39:08;;;;;;;45.67;21.57;;;;;;;;;;701927;28;1919;-64
2024/03/05 00:39:28;;;;;;;46.85;21.52;;;;;;;;;;702792;28;1033;-64
2024/03/05 00:39:48;;;;;;;47.13;23.02;;;;;;;;;;704307;28;1909;-63
2024/03/05 00:40:09;;;;;;;46.53;22.27;;;;;;;;;;702752;28;2222;-63
2024/03/05 00:40:30;;;;;;;44.00;21.00;;;;;;;;;;703250;28;4635;-63
2024/03/05 00:40:51;;;;;;;43.72;20.73;;;;;;;;;;702847;28;1493;-64
2024/03/05 00:41:11;;;;;;;42.90;21.02;;;;;;;;;;701509;28;977;-64
2024/03/05 00:41:32;;;;;;;43.80;21.27;;;;;;;;;;704201;28;880;-64
2024/03/05 00:41:52;;;;;;;41.30;20.67;;;;;;;;;;703078;28;809;-64
2024/03/05 00:42:12;;;;;;;44.23;21.00;;;;;;;;;;702031;28;1837;-64
2024/03/05 00:42:33;;;;;;;46.20;21.13;;;;;;;;;;702085;28;1084;-64
2024/03/05 00:42:54;;;;;;;43.30;21.42;;;;;;;;;;702238;28;1107;-63
2024/03/05 00:43:14;;;;;;;43.45;21.15;;;;;;;;;;701528;28;4585;-63
2024/03/05 00:43:38;;;;;;;46.88;21.42;;;;;;;;;;703711;28;789;-63
2024/03/05 00:43:58;;;;;;;46.03;21.58;;;;;;;;;;704320;28;889;-63
2024/03/05 00:44:19;;;;;;;44.67;21.40;;;;;;;;;;701941;28;1481;-63
2024/03/05 00:44:42;;;;;;;46.92;21.30;;;;;;;;;;703390;28;1203;-64
2024/03/05 00:45:10;;;;;;;46.85;22.35;;;;;;;;;;703880;28;849;-63
2024/03/05 00:45:30;;;;;;;46.03;22.08;;;;;;;;;;702803;28;895;-63
2024/03/05 00:45:51;;;;;;;47.70;21.97;;;;;;;;;;703967;28;916;-63
2024/03/05 00:46:11;;;;;;;45.57;22.57;;;;;;;;;;703028;28;1452;-61
2024/03/05 00:46:31;;;;;;;44.72;22.00;;;;;;;;;;702703;27;4262;-64
2024/03/05 00:46:52;;;;;;;45.53;21.33;;;;;;;;;;703524;28;884;-64
2024/03/05 00:47:13;;;;;;;47.42;21.40;;;;;;;;;;702643;28;2350;-64
2024/03/05 00:47:33;;;;;;;45.67;21.88;;;;;;;;;;703441;28;951;-63
2024/03/05 00:47:54;;;;;;;44.50;21.80;;;;;;;;;;703472;28;1192;-63
2024/03/05 00:48:14;;;;;;;45.13;21.27;;;;;;;;;;702366;28;2354;-64
2024/03/05 00:48:34;;;;;;;45.47;21.50;;;;;;;;;;703200;28;953;-64
2024/03/05 00:48:54;;;;;;;49.07;22.13;;;;;;;;;;702206;28;816;-62
2024/03/05 00:49:15;;;;;;;47.93;22.10;;;;;;;;;;700828;28;4520;-64
2024/03/05 00:49:35;;;;;;;46.53;21.53;;;;;;;;;;700593;28;1141;-64
2024/03/05 00:49:55;;;;;;;44.53;21.60;;;;;;;;;;700138;28;801;-64
2024/03/05 00:50:15;;;;;;;44.67;21.87;;;;;;;;;;698982;28;1995;-64
2024/03/05 00:50:36;;;;;;;44.28;21.58;;;;;;;;;;699823;28;963;-64
2024/03/05 00:50:57;;;;;;;44.33;21.50;;;;;;;;;;700734;28;951;-64
2024/03/05 00:51:17;;;;;;;44.13;21.93;;;;;;;;;;698426;28;1837;-64
2024/03/05 00:51:37;;;;;;;46.57;21.80;;;;;;;;;;699854;28;944;-64
2024/03/05 00:51:57;;;;;;;46.92;21.92;;;;;;;;;;700034;28;946;-64
2024/03/05 00:52:18;;;;;;;45.87;21.80;;;;;;;;;;699720;28;4377;-64
2024/03/05 00:52:38;;;;;;;43.27;21.80;;;;;;;;;;700181;28;814;-63
2024/03/05 00:52:59;;;;;;;44.22;21.23;;;;;;;;;;700362;28;844;-64
2024/03/05 00:53:20;;;;;;;48.05;21.98;;;;;;;;;;699955;28;1866;-63
2024/03/05 00:53:40;;;;;;;48.97;22.88;;;;;;;;;;700739;28;1313;-63
2024/03/05 00:54:01;;;;;;;46.13;21.83;;;;;;;;;;700873;28;908;-63
2024/03/05 00:54:21;;;;;;;45.42;20.98;;;;;;;;;;698579;28;1864;-63
2024/03/05 00:54:41;;;;;;;46.10;21.43;;;;;;;;;;699622;28;862;-64
2024/03/05 00:55:02;;;;;;;44.93;21.50;;;;;;;;;;701509;28;868;-64
2024/03/05 00:55:22;;;;;;;47.22;22.52;;;;;;;;;;698083;28;4423;-63
2024/03/05 00:55:42;;;;;;;46.83;22.27;;;;;;;;;;701181;28;904;-63
2024/03/05 00:56:02;;;;;;;47.27;21.73;;;;;;;;;;699814;28;861;-62
2024/03/05 00:56:23;;;;;;;47.97;22.40;;;;;;;;;;699916;28;1860;-63
2024/03/05 00:56:43;;;;;;;47.90;22.30;;;;;;;;;;700264;28;995;-64
2024/03/05 00:57:03;;;;;;;45.07;21.63;;;;;;;;;;699337;28;938;-64
2024/03/05 00:57:24;;;;;;;44.20;21.27;;;;;;;;;;700031;28;1986;-63
2024/03/05 00:57:45;;;;;;;45.63;21.70;;;;;;;;;;699648;28;986;-64
2024/03/05 00:58:07;;;;;;;48.40;22.10;;;;;;;;;;701485;28;931;-63
2024/03/05 00:58:27;;;;;;;43.47;21.33;;;;;;;;;;699904;28;4482;-64
2024/03/05 00:58:48;;;;;;;44.00;21.73;;;;;;;;;;700347;28;1186;-62
2024/03/05 00:59:08;;;;;;;44.80;21.53;;;;;;;;;;700435;28;2397;-63
2024/03/05 00:59:30;;;;;;;45.80;21.53;;;;;;;;;;699663;28;912;-64
2024/03/05 00:59:50;;;;;;;43.80;20.88;;;;;;;;;;700212;28;1950;-64
2024/03/05 01:00:13;;;;;;;44.25;21.48;;;;;;;;;;698692;28;1524;-64
2024/03/05 01:00:33;;;;;;;43.28;20.70;;;;;;;;;;701051;28;1185;-62
2024/03/05 01:00:54;;;;;;;44.37;20.90;;;;;;;;;;700459;28;880;-63
2024/03/05 01:01:15;;;;;;;41.58;20.98;;;;;;;;;;698351;28;4360;-64
2024/03/05 01:01:36;;;;;;;44.85;21.00;;;;;;;;;;700793;28;919;-63
2024/03/05 01:01:56;;;;;;;46.47;21.65;;;;;;;;;;701425;28;1049;-63
2024/03/05 01:02:16;;;;;;;44.00;21.03;;;;;;;;;;699212;28;3460;-64
2024/03/05 01:02:37;;;;;;;43.83;20.83;;;;;;;;;;700464;28;3888;-64
2024/03/05 01:02:57;;;;;;;44.90;21.30;;;;;;;;;;700875;28;923;-64
2024/03/05 01:03:17;;;;;;;44.97;22.07;;;;;;;;;;700156;28;1816;-65
2024/03/05 01:03:38;;;;;;;46.08;20.95;;;;;;;;;;700265;28;901;-63
2024/03/05 01:03:58;;;;;;;47.40;21.03;;;;;;;;;;699943;28;1288;-63
2024/03/05 01:04:18;;;;;;;49.67;21.80;;;;;;;;;;697436;28;4378;-64
2024/03/05 01:04:39;;;;;;;48.88;21.98;;;;;;;;;;700515;28;978;-64
2024/03/05 01:04:59;;;;;;;49.40;22.40;;;;;;;;;;698754;28;916;-63
2024/03/05 01:05:19;;;;;;;44.05;21.70;;;;;;;;;;696174;28;2468;-64
2024/03/05 01:05:40;;;;;;;43.70;20.80;;;;;;;;;;699054;28;1899;-64
2024/03/05 01:06:03;;;;;;;44.45;20.60;;;;;;;;;;701737;28;928;-64
2024/03/05 01:06:23;;;;;;;44.10;20.92;;;;;;;;;;699966;28;1790;-64
2024/03/05 01:06:44;;;;;;;45.60;22.00;;;;;;;;;;701330;28;947;-63
2024/03/05 01:07:05;;;;;;;43.03;21.13;;;;;;;;;;701348;28;817;-63
2024/03/05 01:07:25;;;;;;;43.58;21.05;;;;;;;;;;698593;28;4504;-64
2024/03/05 01:07:45;;;;;;;43.67;20.50;;;;;;;;;;701289;28;904;-63
2024/03/05 01:08:06;;;;;;;40.50;20.67;;;;;;;;;;700769;28;872;-64
2024/03/05 01:08:26;;;;;;;40.83;20.80;;;;;;;;;;698927;28;1688;-64
2024/03/05 01:08:46;;;;;;;46.40;21.70;;;;;;;;;;699621;28;1316;-63
2024/03/05 01:09:11;;;;;;;43.10;21.30;;;;;;;;;;699005;28;1765;-61
2024/03/05 01:09:32;;;;;;;44.83;21.02;;;;;;;;;;700596;28;933;-65
2024/03/05 01:09:52;;;;;;;45.80;20.93;;;;;;;;;;699994;28;860;-64
2024/03/05 01:10:12;;;;;;;44.72;21.25;;;;;;;;;;698757;28;4351;-63
2024/03/05 01:10:33;;;;;;;42.07;20.33;;;;;;;;;;700550;28;1268;-64
2024/03/05 01:10:53;;;;;;;43.73;20.57;;;;;;;;;;699416;28;928;-63
2024/03/05 01:11:13;;;;;;;46.13;21.55;;;;;;;;;;699733;28;1778;-63
2024/03/05 01:11:33;;;;;;;46.57;20.90;;;;;;;;;;700568;28;844;-64
2024/03/05 01:11:54;;;;;;;46.83;22.00;;;;;;;;;;699934;28;912;-63
2024/03/05 01:12:14;;;;;;;45.97;22.30;;;;;;;;;;699448;28;2294;-66
2024/03/05 01:12:34;;;;;;;44.87;21.10;;;;;;;;;;700639;28;781;-64
2024/03/05 01:12:56;;;;;;;43.43;20.73;;;;;;;;;;699639;28;908;-64
2024/03/05 01:13:19;;;;;;;41.13;21.35;;;;;;;;;;698329;28;4530;-63
2024/03/05 01:13:41;;;;;;;42.47;20.35;;;;;;;;;;698905;28;955;-64
2024/03/05 01:14:01;;;;;;;41.25;19.88;;;;;;;;;;700747;28;1326;-64
2024/03/05 01:14:22;;;;;;;40.20;20.25;;;;;;;;;;699232;28;1739;-65
2024/03/05 01:14:42;;;;;;;44.40;20.60;;;;;;;;;;700111;28;931;-63
2024/03/05 01:15:03;;;;;;;44.03;20.80;;;;;;;;;;700639;28;821;-64
2024/03/05 01:15:23;;;;;;;43.78;21.50;;;;;;;;;;698974;28;1746;-62
2024/03/05 01:15:43;;;;;;;44.08;21.73;;;;;;;;;;699186;28;966;-63
2024/03/05 01:16:04;;;;;;;47.67;21.47;;;;;;;;;;700421;28;868;-63
2024/03/05 01:16:26;;;;;;;47.77;21.83;;;;;;;;;;698636;28;4494;-64
2024/03/05 01:16:46;;;;;;;45.67;21.15;;;;;;;;;;699688;28;833;-63
2024/03/05 01:17:08;;;;;;;45.08;20.85;;;;;;;;;;700094;28;813;-63
2024/03/05 01:17:28;;;;;;;42.05;20.45;;;;;;;;;;699254;28;946;-63
2024/03/05 01:17:49;;;;;;;43.00;20.77;;;;;;;;;;698883;28;852;-63
2024/03/05 01:18:09;;;;;;;43.47;21.30;;;;;;;;;;700479;28;2333;-63
2024/03/05 01:18:29;;;;;;;40.80;20.60;;;;;;;;;;700286;28;837;-63
2024/03/05 01:18:50;;;;;;;40.17;19.97;;;;;;;;;;700092;28;877;-63
2024/03/05 01:19:12;;;;;;;41.35;20.00;;;;;;;;;;698345;28;2940;-63
2024/03/05 01:19:32;;;;;;;43.70;20.17;;;;;;;;;;702099;28;4710;-63
2024/03/05 01:19:53;;;;;;;44.53;20.00;;;;;;;;;;702186;28;2013;-63
2024/03/05 01:20:18;;;;;;;41.25;19.52;;;;;;;;;;703162;27;1531;-63
2024/03/05 01:20:41;;;;;;;41.75;19.80;;;;;;;;;;703310;28;1626;-63
2024/03/05 01:21:01;;;;;;;44.50;20.52;;;;;;;;;;702797;28;1062;-63
2024/03/05 01:21:21;;;;;;;48.13;21.35;;;;;;;;;;702161;28;1842;-62
2024/03/05 01:21:42;;;;;;;44.50;21.63;;;;;;;;;;703031;28;888;-63
2024/03/05 01:22:02;;;;;;;44.97;21.37;;;;;;;;;;702963;28;844;-64
2024/03/05 01:22:22;;;;;;;44.88;20.63;;;;;;;;;;700957;27;4461;-64
2024/03/05 01:22:43;;;;;;;42.53;20.20;;;;;;;;;;703447;28;1555;-64
2024/03/05 01:23:03;;;;;;;40.97;20.40;;;;;;;;;;703712;28;1188;-64
2024/03/05 01:23:24;;;;;;;41.00;19.70;;;;;;;;;;702161;28;2144;-63
2024/03/05 01:23:44;;;;;;;40.58;19.42;;;;;;;;;;703099;28;880;-62
2024/03/05 01:24:04;;;;;;;43.00;20.47;;;;;;;;;;703264;28;1402;-63
2024/03/05 01:24:25;;;;;;;43.73;20.83;;;;;;;;;;701718;28;1738;-63
2024/03/05 01:24:46;;;;;;;45.75;21.00;;;;;;;;;;702815;28;876;-63
2024/03/05 01:25:07;;;;;;;47.38;21.50;;;;;;;;;;703815;28;955;-63
2024/03/05 01:25:27;;;;;;;44.75;21.15;;;;;;;;;;701690;27;4542;-63
2024/03/05 01:25:47;;;;;;;43.20;20.77;;;;;;;;;;702579;28;1274;-63
2024/03/05 01:26:07;;;;;;;44.47;21.23;;;;;;;;;;703447;27;931;-63
2024/03/05 01:26:28;;;;;;;42.22;20.35;;;;;;;;;;701889;28;1604;-63
2024/03/05 01:26:48;;;;;;;43.33;20.33;;;;;;;;;;702749;28;864;-64
2024/03/05 01:27:09;;;;;;;45.60;21.00;;;;;;;;;;701369;28;1740;-63
2024/03/05 01:27:29;;;;;;;45.03;21.57;;;;;;;;;;703205;28;1440;-63
2024/03/05 01:27:49;;;;;;;43.17;20.37;;;;;;;;;;703595;28;896;-62
2024/03/05 01:28:09;;;;;;;43.13;20.23;;;;;;;;;;700939;28;2081;-63
2024/03/05 01:28:30;;;;;;;41.50;20.40;;;;;;;;;;702237;28;4335;-63
2024/03/05 01:28:50;;;;;;;41.23;19.97;;;;;;;;;;702909;28;785;-63
2024/03/05 01:29:16;;;;;;;44.85;20.65;;;;;;;;;;701608;28;998;-61
2024/03/05 01:29:36;;;;;;;42.30;20.80;;;;;;;;;;703690;28;915;-63
2024/03/05 01:29:59;;;;;;;40.30;19.87;;;;;;;;;;701895;28;911;-63
2024/03/05 01:30:19;;;;;;;40.20;19.95;;;;;;;;;;702074;28;1803;-63
2024/03/05 01:30:40;;;;;;;45.13;21.17;;;;;;;;;;702886;28;840;-63
2024/03/05 01:31:02;;;;;;;45.30;20.90;;;;;;;;;;702061;28;1210;-63
2024/03/05 01:31:22;;;;;;;43.10;20.00;;;;;;;;;;701070;28;4721;-62
2024/03/05 01:31:44;;;;;;;43.65;20.50;;;;;;;;;;702095;28;813;-64
2024/03/05 01:32:05;;;;;;;45.28;21.20;;;;;;;;;;701715;28;935;-63
2024/03/05 01:32:28;;;;;;;42.73;20.73;;;;;;;;;;701441;28;2455;-63
2024/03/05 01:32:48;;;;;;;42.90;20.08;;;;;;;;;;699637;28;1027;-63
2024/03/05 01:33:19;;;;;;;44.97;20.80;;;;;;;;;;698812;28;1886;-62
2024/03/05 01:33:40;;;;;;;44.80;20.40;;;;;;;;;;703978;28;990;-63
2024/03/05 01:34:00;;;;;;;46.72;20.88;;;;;;;;;;704351;28;875;-63
2024/03/05 01:34:21;;;;;;;43.08;20.73;;;;;;;;;;701510;28;4651;-63
2024/03/05 01:34:43;;;;;;;41.43;20.93;;;;;;;;;;702489;28;848;-63
2024/03/05 01:35:08;;;;;;;42.80;20.55;;;;;;;;;;702682;28;940;-63
2024/03/05 01:35:30;;;;;;;43.97;21.67;;;;;;;;;;702838;28;979;-63
2024/03/05 01:35:51;;;;;;;44.47;20.45;;;;;;;;;;703073;28;919;-63
2024/03/05 01:36:14;;;;;;;43.80;20.77;;;;;;;;;;700347;28;1500;-63
2024/03/05 01:36:35;;;;;;;42.75;20.70;;;;;;;;;;702420;28;781;-63
2024/03/05 01:36:57;;;;;;;46.93;20.47;;;;;;;;;;701558;28;1102;-63
2024/03/05 01:37:17;;;;;;;45.88;20.08;;;;;;;;;;701955;28;4847;-63
2024/03/05 01:37:38;;;;;;;42.90;20.40;;;;;;;;;;703112;28;933;-62
2024/03/05 01:37:58;;;;;;;47.72;20.77;;;;;;;;;;702893;28;990;-63
2024/03/05 01:38:19;;;;;;;46.67;19.93;;;;;;;;;;701819;28;1468;-63
2024/03/05 01:38:39;;;;;;;42.88;20.00;;;;;;;;;;702958;28;849;-64
2024/03/05 01:38:59;;;;;;;42.03;19.77;;;;;;;;;;702776;28;1148;-63
2024/03/05 01:39:21;;;;;;;43.63;20.83;;;;;;;;;;702960;28;2371;-63
2024/03/05 01:39:41;;;;;;;45.22;21.23;;;;;;;;;;703884;28;1976;-63
2024/03/05 01:40:04;;;;;;;46.42;21.30;;;;;;;;;;702582;28;809;-62
2024/03/05 01:40:24;;;;;;;46.20;20.55;;;;;;;;;;699845;28;4354;-62
2024/03/05 01:40:45;;;;;;;44.30;20.33;;;;;;;;;;702168;28;789;-63
2024/03/05 01:41:05;;;;;;;44.50;20.77;;;;;;;;;;703736;28;1204;-63
2024/03/05 01:41:26;;;;;;;45.75;21.17;;;;;;;;;;701434;28;2156;-63
2024/03/05 01:41:46;;;;;;;41.72;20.05;;;;;;;;;;701970;28;882;-63
2024/03/05 01:42:08;;;;;;;42.63;20.10;;;;;;;;;;704108;28;923;-63
2024/03/05 01:42:28;;;;;;;42.88;20.23;;;;;;;;;;701227;28;1830;-63
2024/03/05 01:42:48;;;;;;;43.93;20.47;;;;;;;;;;702330;28;1204;-62
2024/03/05 01:43:09;;;;;;;42.83;19.77;;;;;;;;;;702759;28;877;-62
2024/03/05 01:43:30;;;;;;;44.70;20.43;;;;;;;;;;701753;27;4274;-63
2024/03/05 01:43:51;;;;;;;44.75;19.92;;;;;;;;;;703996;28;931;-63
2024/03/05 01:44:15;;;;;;;40.92;19.10;;;;;;;;;;701029;28;1760;-63
2024/03/05 01:44:35;;;;;;;42.70;20.02;;;;;;;;;;704742;27;1558;-64
2024/03/05 01:44:55;;;;;;;46.33;19.67;;;;;;;;;;705249;27;872;-63
2024/03/05 01:45:18;;;;;;;43.78;19.30;;;;;;;;;;703395;27;2325;-64
2024/03/05 01:45:38;;;;;;;41.58;19.67;;;;;;;;;;707042;27;952;-64
2024/03/05 01:45:59;;;;;;;43.50;20.73;;;;;;;;;;704954;27;879;-64
2024/03/05 01:46:19;;;;;;;42.80;20.77;;;;;;;;;;701965;27;4365;-64
2024/03/05 01:46:40;;;;;;;43.20;20.07;;;;;;;;;;701789;28;852;-63
2024/03/05 01:47:01;;;;;;;41.63;20.70;;;;;;;;;;703958;28;855;-64
2024/03/05 01:47:21;;;;;;;44.28;20.67;;;;;;;;;;702747;28;893;-63
2024/03/05 01:47:44;;;;;;;47.27;20.80;;;;;;;;;;704064;28;1022;-64
2024/03/05 01:48:04;;;;;;;42.88;20.08;;;;;;;;;;703824;28;1037;-63
2024/03/05 01:48:25;;;;;;;38.60;18.60;;;;;;;;;;700213;28;2440;-64
2024/03/05 01:48:46;;;;;;;41.10;19.10;;;;;;;;;;702506;28;772;-62
2024/03/05 01:49:08;;;;;;;42.55;20.08;;;;;;;;;;702199;28;1002;-63
2024/03/05 01:49:28;;;;;;;42.13;19.58;;;;;;;;;;701637;27;4372;-63
2024/03/05 01:49:49;;;;;;;42.97;20.15;;;;;;;;;;702191;28;1250;-63
2024/03/05 01:50:09;;;;;;;43.43;19.60;;;;;;;;;;702481;28;1308;-64
2024/03/05 01:50:30;;;;;;;41.40;19.65;;;;;;;;;;701418;28;900;-64
2024/03/05 01:50:50;;;;;;;42.38;19.75;;;;;;;;;;699566;28;1183;-64
2024/03/05 01:51:13;;;;;;;45.67;19.87;;;;;;;;;;698840;28;1876;-63
2024/03/05 01:51:34;;;;;;;43.95;20.25;;;;;;;;;;700431;28;833;-64
2024/03/05 01:51:55;;;;;;;41.10;19.67;;;;;;;;;;701911;28;963;-63
2024/03/05 01:52:15;;;;;;;41.78;20.08;;;;;;;;;;700300;28;4863;-63
2024/03/05 01:52:36;;;;;;;44.43;20.10;;;;;;;;;;699125;28;940;-63
2024/03/05 01:52:57;;;;;;;43.10;20.35;;;;;;;;;;702807;28;911;-63
2024/03/05 01:53:18;;;;;;;42.53;20.55;;;;;;;;;;701005;28;2379;-63
2024/03/05 01:53:38;;;;;;;42.13;20.17;;;;;;;;;;701550;28;1268;-62
2024/03/05 01:53:59;;;;;;;43.63;20.10;;;;;;;;;;701723;28;964;-63
2024/03/05 01:54:21;;;;;;;45.10;20.52;;;;;;;;;;700664;28;2333;-62
2024/03/05 01:54:42;;;;;;;43.95;20.58;;;;;;;;;;702772;28;856;-64
2024/03/05 01:55:06;;;;;;;40.97;19.38;;;;;;;;;;701725;28;872;-63
2024/03/05 01:55:26;;;;;;;41.70;20.42;;;;;;;;;;700719;27;4329;-63
2024/03/05 01:55:48;;;;;;;41.80;20.13;;;;;;;;;;703699;28;840;-63
2024/03/05 01:56:09;;;;;;;44.22;20.70;;;;;;;;;;704099;28;916;-63
2024/03/05 01:56:30;;;;;;;44.55;20.25;;;;;;;;;;702517;28;1277;-63
2024/03/05 01:56:53;;;;;;;42.10;19.47;;;;;;;;;;703150;28;868;-63
2024/03/05 01:57:13;;;;;;;43.60;19.95;;;;;;;;;;701224;28;1466;-63
2024/03/05 01:57:34;;;;;;;43.47;19.43;;;;;;;;;;703359;28;840;-63
2024/03/05 01:57:57;;;;;;;40.60;19.58;;;;;;;;;;702053;28;928;-63
2024/03/05 01:58:19;;;;;;;40.95;19.73;;;;;;;;;;697780;28;4299;-63
2024/03/05 01:58:42;;;;;;;44.67;20.50;;;;;;;;;;698600;28;4862;-63
2024/03/05 01:59:03;;;;;;;45.38;20.67;;;;;;;;;;696382;28;1438;-64
2024/03/05 01:59:23;;;;;;;43.27;21.07;;;;;;;;;;695725;28;1719;-63
2024/03/05 01:59:44;;;;;;;42.90;19.90;;;;;;;;;;697710;28;1906;-64
2024/03/05 02:00:07;;;;;;;41.70;20.02;;;;;;;;;;696414;28;1694;-63
2024/03/05 02:00:27;;;;;;;43.55;20.08;;;;;;;;;;697078;28;1989;-63
2024/03/05 02:00:48;;;;;;;43.50;20.50;;;;;;;;;;699216;28;908;-64
2024/03/05 02:01:13;;;;;;;41.05;19.45;;;;;;;;;;700582;28;912;-63
2024/03/05 02:01:34;;;;;;;41.90;19.83;;;;;;;;;;700295;28;4840;-63
2024/03/05 02:01:56;;;;;;;42.53;20.08;;;;;;;;;;701285;28;963;-63
2024/03/05 02:02:16;;;;;;;39.55;19.17;;;;;;;;;;701361;28;1927;-63
2024/03/05 02:02:37;;;;;;;38.92;19.35;;;;;;;;;;702005;28;943;-63
2024/03/05 02:02:57;;;;;;;41.97;19.60;;;;;;;;;;702862;28;999;-63
2024/03/05 02:03:18;;;;;;;40.72;18.70;;;;;;;;;;700527;28;1061;-62
2024/03/05 02:03:40;;;;;;;40.22;18.92;;;;;;;;;;699575;28;837;-63
2024/03/05 02:04:00;;;;;;;41.08;18.55;;;;;;;;;;700791;28;1180;-63
2024/03/05 02:04:21;;;;;;;42.30;18.80;;;;;;;;;;699605;28;4284;-63
2024/03/05 02:04:43;;;;;;;44.17;19.58;;;;;;;;;;703751;28;1089;-63
2024/03/05 02:05:03;;;;;;;44.60;20.77;;;;;;;;;;703736;28;1117;-63
2024/03/05 02:05:23;;;;;;;43.47;20.77;;;;;;;;;;699007;28;979;-62
2024/03/05 02:05:46;;;;;;;46.20;20.47;;;;;;;;;;701437;28;868;-63